Time;durP1;ratioP1;P1;durP2;ratioP2;P2;SDS_P1;SDS_P2;PMS_P1;PMS_P2;Temp;Humidity;BMP_temperature;BMP_pressure;BME280_temperature;BME280_humidity;BME280_pressure;Samples;Min_cycle;Max_cycle;Signal;HPM_P1;HPM_P2
2023/05/11 00:02:55;;;;;;;;;;;;;;;10.46;100.00;97651.13;18569163;32;19984;-55
2023/05/11 00:12:57;;;;;;;;;;;;;;;10.46;100.00;97639.50;18568557;32;19991;-53
2023/05/11 00:23:01;;;;;;;;;;;;;;;10.42;100.00;97639.22;18567672;32;19953;-55
2023/05/11 00:33:03;;;;;;;;;;;;;;;10.38;100.00;97624.63;18567384;32;20260;-55
2023/05/11 00:43:06;;;;;;;;;;;;;;;10.32;100.00;97621.09;18565503;32;19961;-54
2023/05/11 00:53:08;;;;;;;;;;;;;;;10.27;100.00;97612.16;18566313;32;20276;-54
2023/05/11 01:03:13;;;;;;;;;;;;;;;10.23;100.00;97606.47;18565244;32;20021;-54
2023/05/11 01:13:25;;;;;;;;;;;;;;;10.24;100.00;97601.91;18564657;31;19960;-55
2023/05/11 01:23:46;;;;;;;;;;;;;;;10.21;100.00;97607.81;18564284;32;19956;-53
2023/05/11 01:33:57;;;;;;;;;;;;;;;10.21;100.00;97615.94;18563989;32;19969;-54
2023/05/11 01:44:03;;;;;;;;;;;;;;;10.27;100.00;97614.87;18562654;32;19956;-54
2023/05/11 01:54:06;;;;;;;;;;;;;;;10.28;100.00;97621.91;18562309;32;20340;-55
2023/05/11 02:04:10;;;;;;;;;;;;;;;10.26;100.00;97613.25;18561850;32;19960;-54
2023/05/11 02:14:14;;;;;;;;;;;;;;;10.28;100.00;97620.00;18561689;32;20324;-54
2023/05/11 02:24:18;;;;;;;;;;;;;;;10.24;100.00;97620.81;18561196;32;19961;-55
2023/05/11 02:34:22;;;;;;;;;;;;;;;10.23;100.00;97616.50;18560927;32;19948;-54
2023/05/11 02:44:30;;;;;;;;;;;;;;;10.20;100.00;97617.03;18560466;32;19957;-54
2023/05/11 02:54:33;;;;;;;;;;;;;;;10.14;100.00;97608.91;18560334;32;20040;-53
2023/05/11 03:04:36;;;;;;;;;;;;;;;10.13;100.00;97612.69;18559726;31;19949;-54
2023/05/11 03:14:39;;;;;;;;;;;;;;;10.15;100.00;97610.56;18571596;32;19952;-53
2023/05/11 03:24:41;;;;;;;;;;;;;;;10.15;100.00;97599.75;18571484;32;19953;-53
2023/05/11 03:34:44;;;;;;;;;;;;;;;10.12;100.00;97594.06;18570580;31;20361;-51
2023/05/11 03:44:48;;;;;;;;;;;;;;;10.08;100.00;97591.06;18570140;32;20340;-55
2023/05/11 03:54:50;;;;;;;;;;;;;;;10.07;100.00;97575.13;18569629;32;19961;-55
2023/05/11 04:04:53;;;;;;;;;;;;;;;10.05;100.00;97578.09;18554867;32;20268;-53
2023/05/11 04:14:55;;;;;;;;;;;;;;;10.06;100.00;97579.72;18568443;32;19979;-52
2023/05/11 04:24:58;;;;;;;;;;;;;;;10.05;100.00;97580.81;18567744;32;20004;-53
2023/05/11 04:35:01;;;;;;;;;;;;;;;10.11;100.00;97577.03;18567159;32;19956;-51
2023/05/11 04:45:05;;;;;;;;;;;;;;;10.20;100.00;97580.00;18566658;32;20306;-55
2023/05/11 04:55:07;;;;;;;;;;;;;;;10.28;100.00;97587.56;18566193;31;20386;-53
2023/05/11 05:05:10;;;;;;;;;;;;;;;10.42;100.00;97582.47;18565376;32;19968;-54
2023/05/11 05:15:14;;;;;;;;;;;;;;;10.56;100.00;97590.84;18550441;32;20035;-54
2023/05/11 05:25:17;;;;;;;;;;;;;;;10.73;100.00;97598.69;18564050;32;20257;-54
2023/05/11 05:35:19;;;;;;;;;;;;;;;10.84;100.00;97611.09;18548598;31;19956;-54
2023/05/11 05:45:22;;;;;;;;;;;;;;;11.03;100.00;97607.78;18548741;32;19953;-54
2023/05/11 05:55:24;;;;;;;;;;;;;;;11.35;100.00;97596.59;18547698;32;20350;-55
2023/05/11 06:05:27;;;;;;;;;;;;;;;11.68;100.00;97605.13;18561978;32;19985;-54
2023/05/11 06:15:30;;;;;;;;;;;;;;;12.05;100.00;97592.22;18561947;32;20260;-54
2023/05/11 06:25:33;;;;;;;;;;;;;;;12.47;100.00;97590.00;18561125;32;20030;-54
2023/05/11 06:35:36;;;;;;;;;;;;;;;13.02;100.00;97598.69;18560529;32;19957;-54
2023/05/11 06:45:40;;;;;;;;;;;;;;;13.42;100.00;97593.13;18555041;32;19975;-55
2023/05/11 06:55:43;;;;;;;;;;;;;;;13.78;100.00;97594.56;18573224;32;19987;-55
2023/05/11 07:05:45;;;;;;;;;;;;;;;14.10;100.00;97591.13;18558543;32;19952;-54
2023/05/11 07:15:48;;;;;;;;;;;;;;;14.19;100.00;97583.91;18571991;32;20009;-53
2023/05/11 07:25:54;;;;;;;;;;;;;;;14.04;100.00;97587.66;18571540;32;19953;-54
2023/05/11 07:35:57;;;;;;;;;;;;;;;14.47;100.00;97583.19;18570981;31;19971;-55
2023/05/11 07:45:59;;;;;;;;;;;;;;;14.84;100.00;97595.94;18556335;32;19975;-55
2023/05/11 07:56:03;;;;;;;;;;;;;;;15.35;100.00;97596.88;18569383;32;19965;-54
2023/05/11 08:06:06;;;;;;;;;;;;;;;15.08;100.00;97594.97;18568954;32;19945;-55
2023/05/11 08:16:09;;;;;;;;;;;;;;;15.07;100.00;97590.63;18554587;32;19957;-55
2023/05/11 08:26:12;;;;;;;;;;;;;;;15.53;100.00;97588.91;18567829;32;19960;-54
2023/05/11 08:36:15;;;;;;;;;;;;;;;16.01;100.00;97584.91;18566970;31;19960;-54
2023/05/11 08:46:25;;;;;;;;;;;;;;;16.92;97.72;97588.44;18566532;32;20280;-55
2023/05/11 08:56:28;;;;;;;;;;;;;;;16.86;99.19;97585.00;18566097;32;19956;-56
2023/05/11 09:06:31;;;;;;;;;;;;;;;17.13;94.19;97588.72;18565232;32;19983;-55
2023/05/11 09:16:33;;;;;;;;;;;;;;;17.17;94.65;97581.50;18564723;32;19957;-55
2023/05/11 09:26:39;;;;;;;;;;;;;;;16.91;96.10;97576.72;18564014;31;20382;-55
2023/05/11 09:36:43;;;;;;;;;;;;;;;16.78;97.51;97559.25;18549280;32;19976;-55
2023/05/11 09:46:47;;;;;;;;;;;;;;;16.94;90.60;97562.44;18563007;32;19952;-54
2023/05/11 09:56:57;;;;;;;;;;;;;;;17.12;97.29;97559.78;18562447;32;20285;-53
2023/05/11 10:07:03;;;;;;;;;;;;;;;16.30;93.74;97556.41;18562252;32;20008;-55
2023/05/11 10:17:06;;;;;;;;;;;;;;;15.13;100.00;97548.56;18547084;32;19964;-54
2023/05/11 10:27:10;;;;;;;;;;;;;;;14.32;100.00;97546.19;18560894;32;19952;-54
2023/05/11 10:37:14;;;;;;;;;;;;;;;14.83;100.00;97550.78;18560396;31;19963;-55
2023/05/11 10:47:17;;;;;;;;;;;;;;;15.81;100.00;97548.78;18560919;32;19956;-55
2023/05/11 10:57:43;;;;;;;;;;;;;;;15.89;100.00;97525.47;18560246;32;19957;-54
2023/05/11 11:07:57;;;;;;;;;;;;;;;15.23;100.00;97515.66;18541170;32;19991;-54
2023/05/11 11:18:20;;;;;;;;;;;;;;;14.69;100.00;97518.09;18545515;32;19957;-54
2023/05/11 11:28:24;;;;;;;;;;;;;;;14.37;100.00;97518.91;18547904;32;20032;-53
2023/05/11 11:38:27;;;;;;;;;;;;;;;14.42;100.00;97521.53;18570564;31;20359;-53
2023/05/11 11:48:33;;;;;;;;;;;;;;;14.85;100.00;97515.87;18570398;32;19987;-55
2023/05/11 11:58:56;;;;;;;;;;;;;;;15.58;100.00;97507.84;18555085;32;20333;-55
2023/05/11 12:09:04;;;;;;;;;;;;;;;16.19;100.00;97504.81;18568846;31;20443;-55
2023/05/11 12:19:07;;;;;;;;;;;;;;;16.72;100.00;97491.47;18568399;32;20004;-55
2023/05/11 12:29:11;;;;;;;;;;;;;;;16.94;100.00;97494.16;18568074;32;19949;-55
2023/05/11 12:39:17;;;;;;;;;;;;;;;17.65;100.00;97499.75;18566885;32;20044;-55
2023/05/11 12:49:22;;;;;;;;;;;;;;;17.87;100.00;97482.38;18566534;32;19961;-55
2023/05/11 12:59:38;;;;;;;;;;;;;;;17.90;100.00;97485.28;18565819;32;19960;-55
2023/05/11 13:09:41;;;;;;;;;;;;;;;17.87;100.00;97472.28;18551266;32;19952;-56
2023/05/11 13:19:44;;;;;;;;;;;;;;;19.03;80.67;97466.19;18549824;32;19996;-56
2023/05/11 13:29:47;;;;;;;;;;;;;;;18.79;96.32;97467.56;18549672;32;20000;-54
2023/05/11 13:39:50;;;;;;;;;;;;;;;16.93;94.17;97461.69;18563116;32;19960;-54
2023/05/11 13:49:53;;;;;;;;;;;;;;;15.41;100.00;97453.19;18562545;32;19953;-55
2023/05/11 13:59:57;;;;;;;;;;;;;;;14.81;100.00;97448.75;18561913;31;19960;-54
2023/05/11 14:10:01;;;;;;;;;;;;;;;14.78;100.00;97444.72;18562466;32;19948;-53
2023/05/11 14:20:04;;;;;;;;;;;;;;;14.71;100.00;97430.72;18547141;32;19957;-54
2023/05/11 14:30:08;;;;;;;;;;;;;;;15.01;100.00;97433.91;18561124;32;19953;-54
2023/05/11 14:40:11;;;;;;;;;;;;;;;15.32;100.00;97428.59;18560382;32;19956;-54
2023/05/11 14:50:15;;;;;;;;;;;;;;;15.90;100.00;97426.97;18546456;31;20252;-55
2023/05/11 15:00:19;;;;;;;;;;;;;;;16.02;100.00;97417.44;18560280;32;20060;-54
2023/05/11 15:10:22;;;;;;;;;;;;;;;16.12;100.00;97413.66;18571768;32;19967;-53
2023/05/11 15:20:25;;;;;;;;;;;;;;;16.30;100.00;97417.28;18572024;32;20004;-55
2023/05/11 15:30:28;;;;;;;;;;;;;;;16.70;100.00;97409.06;18571449;32;20299;-55
2023/05/11 15:40:33;;;;;;;;;;;;;;;17.01;100.00;97402.78;18556182;32;19952;-55
2023/05/11 15:50:44;;;;;;;;;;;;;;;16.79;100.00;97396.25;18570102;32;20369;-55
2023/05/11 16:00:47;;;;;;;;;;;;;;;16.43;100.00;97405.44;18555179;32;19960;-55
2023/05/11 16:10:50;;;;;;;;;;;;;;;16.49;100.00;97393.28;18569894;32;19952;-55
2023/05/11 16:20:53;;;;;;;;;;;;;;;16.96;100.00;97405.62;18568073;32;19965;-54
2023/05/11 16:30:56;;;;;;;;;;;;;;;17.32;100.00;97410.03;18567818;32;19952;-55
2023/05/11 16:41:00;;;;;;;;;;;;;;;18.07;100.00;97407.09;18553688;32;19952;-54
2023/05/11 16:51:03;;;;;;;;;;;;;;;18.80;92.35;97408.91;18552541;32;19968;-55
2023/05/11 17:01:06;;;;;;;;;;;;;;;18.20;87.32;97397.88;18565654;32;19968;-54
2023/05/11 17:11:10;;;;;;;;;;;;;;;17.77;88.04;97390.53;18565456;32;19967;-53
2023/05/11 17:21:13;;;;;;;;;;;;;;;17.55;88.73;97389.59;18550452;32;20317;-53
2023/05/11 17:41:50;;;;;;;;;;;;;;;15.91;100.00;97393.16;18563111;32;19953;-50
2023/05/11 17:51:53;;;;;;;;;;;;;;;15.16;100.00;97397.38;18562980;32;20003;-52
2023/05/11 18:01:57;;;;;;;;;;;;;;;14.77;100.00;97407.72;18562340;32;20245;-54
2023/05/11 18:12:01;;;;;;;;;;;;;;;14.42;100.00;97418.19;18561968;32;20363;-53
2023/05/11 18:22:04;;;;;;;;;;;;;;;13.94;100.00;97418.50;18561509;32;19993;-53
2023/05/11 18:32:07;;;;;;;;;;;;;;;13.48;100.00;97418.13;18560728;31;20348;-52
2023/05/11 18:42:10;;;;;;;;;;;;;;;13.14;100.00;97419.16;18570399;32;19995;-49
2023/05/11 18:52:13;;;;;;;;;;;;;;;12.92;100.00;97432.47;18559899;32;20015;-51
2023/05/11 19:02:16;;;;;;;;;;;;;;;12.62;100.00;97435.25;18573216;32;20000;-54
2023/05/11 19:12:19;;;;;;;;;;;;;;;12.43;100.00;97442.50;18572581;32;19961;-52
2023/05/11 19:22:25;;;;;;;;;;;;;;;12.20;100.00;97450.34;18572117;32;20373;-53
2023/05/11 19:32:28;;;;;;;;;;;;;;;12.06;100.00;97457.50;18571218;32;20351;-54
2023/05/11 19:42:31;;;;;;;;;;;;;;;11.94;100.00;97464.13;18570761;32;19985;-51
2023/05/11 19:52:41;;;;;;;;;;;;;;;11.82;100.00;97469.06;18569723;32;19961;-53
2023/05/11 20:02:45;;;;;;;;;;;;;;;11.73;100.00;97477.00;18569751;32;19993;-49
2023/05/11 20:12:47;;;;;;;;;;;;;;;11.73;100.00;97485.13;18554790;32;20314;-51
2023/05/11 20:22:50;;;;;;;;;;;;;;;11.68;100.00;97483.25;18553823;32;19952;-52
2023/05/11 20:32:53;;;;;;;;;;;;;;;11.64;100.00;97494.94;18567727;32;20329;-52
2023/05/11 20:42:59;;;;;;;;;;;;;;;11.57;100.00;97491.72;18567330;32;19952;-52
2023/05/11 20:53:02;;;;;;;;;;;;;;;11.43;100.00;97500.47;18567255;32;19967;-53
2023/05/11 21:03:05;;;;;;;;;;;;;;;11.34;100.00;97494.03;18566426;32;19960;-53
2023/05/11 21:13:09;;;;;;;;;;;;;;;11.28;100.00;97492.44;18565025;31;19988;-54
2023/05/11 21:23:13;;;;;;;;;;;;;;;11.21;100.00;97491.91;18550262;32;19975;-53
2023/05/11 21:33:16;;;;;;;;;;;;;;;11.22;100.00;97498.97;18550363;32;20011;-50
2023/05/11 21:43:19;;;;;;;;;;;;;;;11.21;100.00;97489.22;18563112;32;19967;-50
2023/05/11 21:53:22;;;;;;;;;;;;;;;11.07;100.00;97476.28;18549020;32;20294;-53
2023/05/11 22:03:28;;;;;;;;;;;;;;;11.04;100.00;97484.97;18562487;32;19984;-50
2023/05/11 22:13:32;;;;;;;;;;;;;;;10.95;100.00;97486.63;18561590;32;19952;-51
2023/05/11 22:23:35;;;;;;;;;;;;;;;10.80;100.00;97485.59;18561308;32;19957;-52
2023/05/11 22:33:38;;;;;;;;;;;;;;;10.72;100.00;97480.75;18561012;32;20284;-53
2023/05/11 22:43:41;;;;;;;;;;;;;;;10.50;100.00;97470.28;18560667;32;20012;-54
2023/05/11 22:53:44;;;;;;;;;;;;;;;10.33;100.00;97478.66;18561089;32;19948;-52
2023/05/11 23:03:47;;;;;;;;;;;;;;;10.15;100.00;97480.03;18545697;32;19969;-52
2023/05/11 23:13:50;;;;;;;;;;;;;;;9.95;100.00;97470.87;18560526;32;19972;-49
2023/05/11 23:23:53;;;;;;;;;;;;;;;9.81;100.00;97464.38;18561987;32;19960;-54
2023/05/11 23:33:55;;;;;;;;;;;;;;;9.75;100.00;97460.88;18556591;32;19953;-52
2023/05/11 23:43:57;;;;;;;;;;;;;;;9.73;100.00;97463.03;18570487;32;19968;-54
2023/05/11 23:54:00;;;;;;;;;;;;;;;9.71;100.00;97470.59;18555952;32;19993;-53
